createdAt,value
2022-08-22T00:00:50.232Z,68.99
2022-08-22T00:03:25.856Z,69.54
2022-08-22T00:06:00.362Z,69.66
2022-08-22T00:08:43.001Z,69.49
2022-08-22T00:11:15.300Z,69.87
2022-08-22T00:13:47.725Z,70.19
2022-08-22T00:16:35.901Z,70.66
2022-08-22T00:19:16.713Z,70.40
2022-08-22T00:22:05.291Z,70.85
2022-08-22T00:24:43.976Z,70.94
2022-08-22T00:27:13.178Z,71.08
2022-08-22T00:29:43.415Z,71.23
2022-08-22T00:32:20.122Z,71.86
2022-08-22T00:34:51.039Z,71.80
2022-08-22T00:37:17.479Z,71.96
2022-08-22T00:39:47.470Z,71.86
2022-08-22T00:42:29.286Z,71.30
2022-08-22T00:45:17.031Z,71.37
2022-08-22T00:47:45.684Z,71.48
2022-08-22T00:50:30.523Z,71.43
2022-08-22T00:53:04.181Z,71.44
2022-08-22T00:55:45.382Z,71.80
2022-08-22T00:58:30.265Z,72.27
2022-08-22T01:01:02.258Z,72.67
2022-08-22T01:03:50.405Z,72.19
2022-08-22T01:06:19.648Z,72.47
2022-08-22T01:09:01.730Z,72.24
2022-08-22T01:11:35.456Z,72.14
2022-08-22T01:14:20.393Z,72.52
2022-08-22T01:17:19.605Z,72.33
2022-08-22T01:20:01.640Z,74.72
2022-08-22T01:22:28.004Z,75.87
2022-08-22T01:25:16.436Z,76.18
2022-08-22T01:28:03.013Z,75.07
2022-08-22T01:30:37.788Z,76.01
2022-08-22T01:33:10.118Z,76.76
2022-08-22T01:35:36.519Z,76.21
2022-08-22T01:38:29.177Z,75.86
2022-08-22T01:41:06.233Z,75.63
2022-08-22T01:43:59.088Z,75.57
2022-08-22T01:46:28.615Z,75.90
2022-08-22T01:49:11.724Z,75.59
2022-08-22T01:51:43.295Z,75.15
2022-08-22T01:54:13.073Z,75.08
2022-08-22T01:56:45.756Z,74.83
2022-08-22T01:59:15.087Z,74.94
2022-08-22T02:01:49.865Z,74.76
2022-08-22T02:04:20.624Z,75.24
2022-08-22T02:06:59.745Z,75.41
2022-08-22T02:09:34.725Z,75.36
2022-08-22T02:12:22.057Z,75.20
2022-08-22T02:14:54.703Z,74.53
2022-08-22T02:17:27.937Z,76.34
2022-08-22T02:19:57.766Z,76.91
2022-08-22T02:22:50.507Z,76.41
2022-08-22T02:25:23.723Z,75.78
2022-08-22T02:28:08.458Z,75.52
2022-08-22T02:30:47.070Z,75.44
2022-08-22T02:33:21.698Z,75.33
2022-08-22T02:35:59.797Z,75.45
2022-08-22T02:38:35.355Z,75.52
2022-08-22T02:41:01.986Z,75.82
2022-08-22T02:43:36.691Z,75.92
2022-08-22T02:46:03.929Z,76.14
2022-08-22T02:48:54.852Z,76.18
2022-08-22T02:51:29.885Z,76.56
2022-08-22T02:54:03.072Z,76.06
2022-08-22T02:56:40.814Z,76.59
2022-08-22T02:59:25.970Z,76.41
2022-08-22T03:01:52.825Z,76.42
2022-08-22T03:04:25.581Z,76.28
2022-08-22T03:07:06.954Z,76.43
2022-08-22T03:09:51.391Z,75.94
2022-08-22T03:12:29.921Z,75.78
2022-08-22T03:15:07.815Z,76.02
2022-08-22T03:18:00.586Z,75.87
2022-08-22T03:20:42.684Z,76.06
2022-08-22T03:23:34.579Z,76.54
2022-08-22T03:26:07.657Z,76.90
2022-08-22T03:28:37.375Z,76.91
2022-08-22T03:31:20.373Z,77.61
2022-08-22T03:34:06.730Z,77.03
2022-08-22T03:36:34.829Z,76.75
2022-08-22T03:39:27.750Z,76.53
2022-08-22T03:42:17.869Z,76.37
2022-08-22T03:44:56.489Z,76.37
2022-08-22T03:47:26.065Z,76.30
2022-08-22T03:49:59.359Z,76.47
2022-08-22T03:53:01.284Z,76.53
2022-08-22T03:55:30.726Z,76.52
2022-08-22T03:58:27.539Z,77.04
2022-08-22T04:01:27.242Z,77.33
2022-08-22T04:03:59.231Z,77.04
2022-08-22T04:06:44.425Z,77.05
2022-08-22T04:09:20.633Z,77.53
2022-08-22T04:11:56.228Z,77.66
2022-08-22T04:14:25.681Z,77.57
2022-08-22T04:16:58.289Z,77.53
2022-08-22T04:19:24.663Z,77.47
2022-08-22T04:22:09.966Z,77.38
2022-08-22T04:24:54.656Z,77.78
2022-08-22T04:27:34.187Z,77.98
2022-08-22T04:30:22.973Z,77.78
2022-08-22T04:33:09.681Z,77.68
2022-08-22T04:35:41.982Z,77.32
2022-08-22T04:38:20.283Z,77.24
2022-08-22T04:40:50.519Z,77.16
2022-08-22T04:43:23.758Z,77.38
2022-08-22T04:46:08.259Z,77.64
2022-08-22T04:48:37.710Z,77.82
2022-08-22T04:51:16.633Z,77.87
2022-08-22T04:53:52.960Z,77.90
2022-08-22T04:56:35.364Z,77.70
2022-08-22T04:59:09.259Z,77.81
2022-08-22T05:01:55.617Z,77.53
2022-08-22T05:04:22.068Z,77.58
2022-08-22T05:06:52.133Z,77.51
2022-08-22T05:09:21.706Z,77.61
2022-08-22T05:11:51.435Z,78.01
2022-08-22T05:14:21.428Z,77.69
2022-08-22T05:16:50.918Z,77.71
2022-08-22T05:19:27.082Z,77.41
2022-08-22T05:22:05.591Z,76.95
2022-08-22T05:24:33.779Z,76.81
2022-08-22T05:27:05.827Z,75.96
2022-08-22T05:29:32.625Z,75.61
2022-08-22T05:32:07.451Z,75.11
2022-08-22T05:34:37.274Z,75.13
2022-08-22T05:37:03.651Z,75.21
2022-08-22T05:39:34.947Z,75.23
2022-08-22T05:42:02.529Z,75.22
2022-08-22T05:44:37.575Z,74.57
2022-08-22T05:47:12.854Z,74.04
2022-08-22T05:49:48.344Z,74.07
2022-08-22T05:52:20.721Z,73.93
2022-08-22T05:55:00.628Z,74.42
2022-08-22T05:57:33.624Z,74.38
2022-08-22T06:00:14.989Z,74.17
2022-08-22T06:02:51.540Z,74.00
2022-08-22T06:05:29.304Z,74.42
2022-08-22T06:08:01.002Z,74.68
2022-08-22T06:10:31.844Z,74.49
2022-08-22T06:13:03.165Z,75.64
2022-08-22T06:15:34.693Z,74.71
2022-08-22T06:18:15.050Z,76.41
2022-08-22T06:20:47.737Z,76.33
2022-08-22T06:23:15.859Z,77.30
2022-08-22T06:25:44.920Z,75.90
2022-08-22T06:28:13.933Z,77.84
2022-08-22T06:30:40.561Z,78.65
2022-08-22T06:33:10.768Z,77.01
2022-08-22T06:35:59.349Z,76.16
2022-08-22T06:38:33.173Z,76.17
2022-08-22T06:41:06.216Z,77.07
2022-08-22T06:43:39.032Z,77.35
2022-08-22T06:46:06.377Z,76.25
2022-08-22T06:48:37.363Z,77.17
2022-08-22T06:51:06.509Z,75.83
2022-08-22T06:53:35.202Z,76.40
2022-08-22T06:56:03.486Z,75.93
2022-08-22T06:58:34.378Z,75.23
2022-08-22T07:01:12.450Z,75.20
2022-08-22T07:03:45.022Z,74.64
2022-08-22T07:06:16.135Z,74.36
2022-08-22T07:08:43.991Z,74.23
2022-08-22T07:11:15.099Z,74.04
2022-08-22T07:13:44.202Z,73.11
2022-08-22T07:16:10.927Z,73.25
2022-08-22T07:18:46.289Z,72.68
2022-08-22T07:21:26.095Z,73.26
2022-08-22T07:23:56.667Z,72.80
2022-08-22T07:26:33.653Z,72.36
2022-08-22T07:29:00.090Z,72.07
2022-08-22T07:31:49.802Z,71.13
2022-08-22T07:34:25.656Z,70.39
2022-08-22T07:37:10.824Z,69.46
2022-08-22T07:39:46.512Z,70.21
2022-08-22T07:42:18.430Z,70.60
2022-08-22T07:44:47.639Z,70.04
2022-08-22T07:47:18.080Z,70.35
2022-08-22T07:50:02.163Z,68.42
2022-08-22T07:52:35.422Z,68.17
2022-08-22T07:55:09.123Z,67.07
2022-08-22T07:57:38.800Z,66.50
2022-08-22T08:00:11.364Z,66.68
2022-08-22T08:02:40.285Z,65.11
2022-08-22T08:05:06.936Z,63.29
2022-08-22T08:07:33.475Z,63.94
2022-08-22T08:10:13.111Z,63.01
2022-08-22T08:13:02.222Z,62.57
2022-08-22T08:15:30.377Z,61.10
2022-08-22T08:17:59.913Z,62.25
2022-08-22T08:20:27.498Z,58.34
2022-08-22T08:22:58.325Z,60.89
2022-08-22T08:25:27.697Z,60.77
2022-08-22T08:28:13.484Z,59.81
2022-08-22T08:30:46.999Z,58.83
2022-08-22T08:33:26.067Z,57.80
2022-08-22T08:36:02.894Z,57.46
2022-08-22T08:38:47.937Z,56.10
2022-08-22T08:41:33.653Z,56.59
2022-08-22T08:44:03.262Z,55.53
2022-08-22T08:46:29.668Z,52.23
2022-08-22T08:49:12.862Z,52.19
2022-08-22T08:51:42.291Z,53.11
2022-08-22T08:54:09.331Z,51.81
2022-08-22T08:56:47.267Z,51.84
2022-08-22T08:59:32.123Z,51.49
2022-08-22T09:02:25.030Z,50.77
2022-08-22T09:05:08.904Z,49.92
2022-08-22T09:07:36.125Z,49.84
2022-08-22T09:10:21.225Z,49.40
2022-08-22T09:13:11.434Z,48.23
2022-08-22T09:15:42.172Z,47.67
2022-08-22T09:18:18.254Z,48.23
2022-08-22T09:20:59.317Z,47.82
2022-08-22T09:23:44.282Z,47.15
2022-08-22T09:26:17.557Z,47.50
2022-08-22T09:28:57.978Z,46.54
2022-08-22T09:31:51.847Z,46.66
2022-08-22T09:34:30.284Z,45.85
2022-08-22T09:36:56.649Z,43.42
2022-08-22T09:39:29.308Z,44.13
2022-08-22T09:42:04.095Z,45.60
2022-08-22T09:44:39.607Z,44.32
2022-08-22T09:47:26.588Z,45.05
2022-08-22T09:50:11.139Z,44.46
2022-08-22T09:52:56.072Z,43.81
2022-08-22T09:55:34.894Z,44.54
2022-08-22T09:58:05.712Z,44.12
2022-08-22T10:00:47.182Z,44.30
2022-08-22T10:03:31.140Z,43.13
2022-08-22T10:06:09.833Z,43.49
2022-08-22T10:08:46.924Z,43.09
2022-08-22T10:11:24.803Z,43.48
2022-08-22T10:14:10.077Z,43.51
2022-08-22T10:16:47.218Z,42.70
2022-08-22T10:19:29.254Z,41.95
2022-08-22T10:21:55.720Z,42.71
2022-08-22T10:24:44.044Z,42.86
2022-08-22T10:27:22.758Z,42.26
2022-08-22T10:30:18.506Z,42.39
2022-08-22T10:33:03.569Z,41.77
2022-08-22T10:35:43.949Z,42.04
2022-08-22T10:38:26.651Z,42.27
2022-08-22T10:41:01.406Z,42.33
2022-08-22T10:43:33.274Z,41.17
2022-08-22T10:46:12.638Z,41.23
2022-08-22T10:48:57.355Z,41.24
2022-08-22T10:51:41.353Z,41.54
2022-08-22T10:54:20.280Z,40.04
2022-08-22T10:56:53.330Z,39.92
2022-08-22T10:59:23.377Z,40.92
2022-08-22T11:02:16.455Z,39.99
2022-08-22T11:05:01.839Z,38.72
2022-08-22T11:07:31.965Z,39.21
2022-08-22T11:10:09.223Z,39.67
2022-08-22T11:12:41.794Z,40.05
2022-08-22T11:15:35.206Z,38.08
2022-08-22T11:18:37.205Z,38.82
2022-08-22T11:21:07.875Z,38.89
2022-08-22T11:23:44.682Z,39.23
2022-08-22T11:26:38.254Z,38.74
2022-08-22T11:29:13.418Z,38.89
2022-08-22T11:32:05.629Z,38.58
2022-08-22T11:34:53.803Z,38.22
2022-08-22T11:37:27.040Z,38.02
2022-08-22T11:40:32.737Z,38.42
2022-08-22T11:43:18.016Z,38.20
2022-08-22T11:45:52.287Z,38.18
2022-08-22T11:48:25.474Z,38.31
2022-08-22T11:50:57.772Z,37.87
2022-08-22T11:53:24.159Z,37.93
2022-08-22T11:55:59.864Z,37.27
2022-08-22T11:58:47.565Z,38.43
2022-08-22T12:01:24.941Z,40.10
2022-08-22T12:04:03.507Z,40.83
2022-08-22T12:06:46.970Z,41.41
2022-08-22T12:09:13.552Z,42.18
2022-08-22T12:11:45.756Z,40.09
2022-08-22T12:14:19.413Z,38.90
2022-08-22T12:17:01.184Z,37.84
2022-08-22T12:19:27.921Z,37.71
2022-08-22T12:22:17.882Z,38.42
2022-08-22T12:24:47.311Z,39.96
2022-08-22T12:27:28.668Z,39.56
2022-08-22T12:29:59.137Z,39.12
2022-08-22T12:32:28.524Z,38.50
2022-08-22T12:35:13.686Z,38.98
2022-08-22T12:37:59.562Z,39.95
2022-08-22T12:40:38.200Z,39.90
2022-08-22T12:43:18.709Z,40.25
2022-08-22T12:45:56.448Z,39.34
2022-08-22T12:48:38.598Z,38.03
2022-08-22T12:51:20.244Z,36.21
2022-08-22T12:54:05.512Z,36.74
2022-08-22T12:56:38.066Z,37.07
2022-08-22T12:59:07.555Z,36.30
2022-08-22T13:01:42.635Z,36.75
2022-08-22T13:04:19.305Z,36.88
2022-08-22T13:07:00.075Z,37.88
2022-08-22T13:09:31.293Z,36.40
2022-08-22T13:12:22.768Z,35.84
2022-08-22T13:14:52.803Z,36.53
2022-08-22T13:17:24.357Z,36.67
2022-08-22T13:20:09.048Z,36.84
2022-08-22T13:22:38.880Z,38.38
2022-08-22T13:25:16.264Z,37.65
2022-08-22T13:27:59.279Z,38.24
2022-08-22T13:30:37.871Z,38.85
2022-08-22T13:33:09.525Z,38.61
2022-08-22T13:35:55.124Z,39.15
2022-08-22T13:38:40.361Z,38.38
2022-08-22T13:41:18.230Z,37.27
2022-08-22T13:43:57.245Z,38.12
2022-08-22T13:46:28.137Z,39.30
2022-08-22T13:49:00.984Z,39.97
2022-08-22T13:51:41.245Z,38.54
2022-08-22T13:54:10.831Z,40.83
2022-08-22T13:56:43.550Z,40.21
2022-08-22T13:59:47.092Z,40.17
2022-08-22T14:02:25.043Z,39.85
2022-08-22T14:05:04.126Z,39.90
2022-08-22T14:07:36.308Z,37.00
2022-08-22T14:10:06.608Z,36.81
2022-08-22T14:12:50.997Z,36.96
2022-08-22T14:15:44.833Z,37.15
2022-08-22T14:18:18.503Z,38.31
2022-08-22T14:20:49.160Z,38.95
2022-08-22T14:23:29.267Z,39.02
2022-08-22T14:25:56.200Z,39.82
2022-08-22T14:28:27.424Z,38.64
2022-08-22T14:31:04.089Z,38.80
2022-08-22T14:33:35.392Z,38.30
2022-08-22T14:36:13.346Z,39.61
2022-08-22T14:38:46.304Z,39.88
2022-08-22T14:41:26.198Z,39.67
2022-08-22T14:43:56.937Z,39.50
2022-08-22T14:46:32.301Z,39.64
2022-08-22T14:49:13.792Z,39.63
2022-08-22T14:51:47.970Z,40.05
2022-08-22T14:54:21.488Z,39.54
2022-08-22T14:56:49.027Z,39.29
2022-08-22T14:59:30.475Z,39.28
2022-08-22T15:02:03.026Z,39.41
2022-08-22T15:04:34.143Z,38.66
2022-08-22T15:07:02.335Z,38.84
2022-08-22T15:09:33.046Z,38.67
2022-08-22T15:12:01.730Z,38.65
2022-08-22T15:14:52.484Z,38.28
2022-08-22T15:17:36.404Z,37.82
2022-08-22T15:20:16.131Z,37.54
2022-08-22T15:22:46.001Z,37.92
2022-08-22T15:25:12.406Z,37.00
2022-08-22T15:27:56.891Z,37.94
2022-08-22T15:30:39.073Z,38.17
2022-08-22T15:33:32.282Z,38.26
2022-08-22T15:36:27.947Z,38.02
2022-08-22T15:38:56.327Z,36.59
2022-08-22T15:41:31.232Z,37.42
2022-08-22T15:44:09.448Z,38.52
2022-08-22T15:46:44.825Z,38.50
2022-08-22T15:49:33.409Z,38.95
2022-08-22T15:52:01.411Z,38.65
2022-08-22T15:54:30.909Z,38.56
2022-08-22T15:57:09.987Z,38.92
2022-08-22T15:59:48.031Z,37.22
2022-08-22T16:02:27.030Z,38.88
2022-08-22T16:05:11.636Z,37.43
2022-08-22T16:07:40.744Z,38.82
2022-08-22T16:10:12.352Z,39.09
2022-08-22T16:12:45.955Z,39.67
2022-08-22T16:15:31.278Z,39.43
2022-08-22T16:17:57.839Z,39.08
2022-08-22T16:20:24.433Z,40.28
2022-08-22T16:22:56.760Z,39.82
2022-08-22T16:25:41.907Z,40.42
2022-08-22T16:28:19.268Z,40.13
2022-08-22T16:30:52.359Z,40.50
2022-08-22T16:33:33.724Z,40.93
2022-08-22T16:36:37.351Z,40.88
2022-08-22T16:39:08.918Z,41.47
2022-08-22T16:41:41.416Z,41.51
2022-08-22T16:44:17.073Z,42.05
2022-08-22T16:46:45.038Z,41.74
2022-08-22T16:49:23.169Z,42.48
2022-08-22T16:52:09.809Z,42.42
2022-08-22T16:54:44.554Z,42.66
2022-08-22T16:57:10.972Z,42.87
2022-08-22T16:59:49.988Z,42.91
2022-08-22T17:02:16.423Z,42.24
2022-08-22T17:05:04.351Z,42.39
2022-08-22T17:07:49.353Z,42.11
2022-08-22T17:10:24.878Z,42.68
2022-08-22T17:12:51.245Z,42.13
2022-08-22T17:15:28.046Z,42.38
2022-08-22T17:17:57.154Z,41.63
2022-08-22T17:20:29.811Z,42.33
2022-08-22T17:23:03.114Z,42.38
2022-08-22T17:25:44.766Z,42.67
2022-08-22T17:28:34.623Z,43.10
2022-08-22T17:31:21.350Z,43.92
2022-08-22T17:33:56.650Z,43.02
2022-08-22T17:36:41.275Z,42.68
2022-08-22T17:39:26.135Z,43.26
2022-08-22T17:42:21.337Z,43.66
2022-08-22T17:44:50.634Z,44.26
2022-08-22T17:47:19.564Z,44.29
2022-08-22T17:49:51.845Z,44.49
2022-08-22T17:52:30.391Z,44.90
2022-08-22T17:55:15.666Z,45.03
2022-08-22T17:57:54.007Z,45.20
2022-08-22T18:00:26.340Z,45.15
2022-08-22T18:03:10.537Z,45.62
2022-08-22T18:05:49.114Z,46.01
2022-08-22T18:11:12.279Z,46.61
2022-08-22T18:14:04.987Z,46.72
2022-08-22T18:16:36.969Z,47.57
2022-08-22T18:19:06.530Z,47.66
2022-08-22T18:21:37.060Z,48.03
2022-08-22T18:24:09.293Z,48.17
2022-08-22T18:26:41.729Z,48.60
2022-08-22T18:29:23.865Z,48.66
2022-08-22T18:32:07.485Z,48.74
2022-08-22T18:34:56.314Z,48.85
2022-08-22T18:37:43.056Z,48.96
2022-08-22T18:40:28.590Z,48.94
2022-08-22T18:43:15.276Z,49.00
2022-08-22T18:45:47.789Z,49.16
2022-08-22T18:48:36.865Z,49.13
2022-08-22T18:51:15.137Z,49.28
2022-08-22T18:53:46.338Z,49.62
2022-08-22T18:56:19.371Z,49.78
2022-08-22T18:59:15.387Z,49.63
2022-08-22T19:01:44.363Z,49.96
2022-08-22T19:04:30.089Z,49.97
2022-08-22T19:07:03.442Z,50.07
2022-08-22T19:09:52.571Z,50.49
2022-08-22T19:12:23.056Z,50.51
2022-08-22T19:14:53.845Z,50.59
2022-08-22T19:17:27.613Z,50.91
2022-08-22T19:20:38.680Z,50.97
2022-08-22T19:23:33.897Z,50.98
2022-08-22T19:26:18.835Z,51.37
2022-08-22T19:28:48.061Z,51.73
2022-08-22T19:31:22.681Z,51.84
2022-08-22T19:34:09.039Z,52.60
2022-08-22T19:36:36.140Z,53.19
2022-08-22T19:39:09.221Z,54.28
2022-08-22T19:41:48.089Z,54.43
2022-08-22T19:44:23.261Z,55.57
2022-08-22T19:47:11.423Z,56.75
2022-08-22T19:49:43.713Z,57.31
2022-08-22T19:52:26.045Z,55.99
2022-08-22T19:54:55.475Z,56.82
2022-08-22T19:57:42.143Z,57.82
2022-08-22T20:00:13.845Z,58.83
2022-08-22T20:02:56.906Z,58.12
2022-08-22T20:05:31.899Z,58.76
2022-08-22T20:08:13.371Z,58.75
2022-08-22T20:11:03.170Z,58.64
2022-08-22T20:13:34.355Z,58.43
2022-08-22T20:16:21.539Z,58.94
2022-08-22T20:18:51.863Z,58.76
2022-08-22T20:21:40.875Z,60.56
2022-08-22T20:24:10.049Z,60.85
2022-08-22T20:26:51.935Z,61.66
2022-08-22T20:29:36.352Z,59.75
2022-08-22T20:32:04.696Z,60.91
2022-08-22T20:34:33.626Z,60.46
2022-08-22T20:37:27.134Z,59.73
2022-08-22T20:39:59.453Z,59.21
2022-08-22T20:42:26.503Z,59.03
2022-08-22T20:44:53.813Z,59.68
2022-08-22T20:47:24.876Z,58.90
2022-08-22T20:49:53.408Z,58.78
2022-08-22T20:52:19.890Z,58.60
2022-08-22T20:54:57.727Z,58.56
2022-08-22T20:57:24.174Z,58.67
2022-08-22T20:59:59.160Z,59.16
2022-08-22T21:02:37.685Z,60.63
2022-08-22T21:05:04.672Z,61.96
2022-08-22T21:07:32.954Z,61.87
2022-08-22T21:10:22.568Z,62.04
2022-08-22T21:13:04.508Z,61.92
2022-08-22T21:15:35.331Z,61.60
2022-08-22T21:18:02.140Z,61.73
2022-08-22T21:20:31.261Z,61.92
2022-08-22T21:23:01.060Z,63.51
2022-08-22T21:25:30.109Z,64.56
2022-08-22T21:28:00.825Z,64.20
2022-08-22T21:30:29.388Z,64.10
2022-08-22T21:32:56.609Z,62.85
2022-08-22T21:35:26.089Z,63.78
2022-08-22T21:37:52.654Z,64.89
2022-08-22T21:40:28.837Z,66.27
2022-08-22T21:43:00.466Z,67.64
2022-08-22T21:45:35.538Z,66.67
2022-08-22T21:48:21.865Z,66.67
2022-08-22T21:50:48.320Z,66.32
2022-08-22T21:53:29.835Z,66.77
2022-08-22T21:56:16.090Z,66.73
2022-08-22T21:58:42.855Z,67.37
2022-08-22T22:01:28.256Z,67.11
2022-08-22T22:03:55.360Z,66.73
2022-08-22T22:06:25.465Z,66.24
2022-08-22T22:08:51.901Z,66.79
2022-08-22T22:11:18.427Z,67.89
2022-08-22T22:13:45.066Z,66.57
2022-08-22T22:16:14.809Z,66.09
2022-08-22T22:18:41.280Z,65.33
2022-08-22T22:21:08.427Z,64.54
2022-08-22T22:23:34.893Z,64.63
2022-08-22T22:26:05.353Z,64.05
2022-08-22T22:28:34.700Z,64.70
2022-08-22T22:31:01.391Z,64.18
2022-08-22T22:33:32.281Z,63.73
2022-08-22T22:36:04.945Z,64.16
2022-08-22T22:38:31.407Z,65.29
2022-08-22T22:40:57.884Z,65.54
2022-08-22T22:43:25.861Z,65.33
2022-08-22T22:45:55.418Z,65.51
2022-08-22T22:48:24.532Z,66.05
2022-08-22T22:50:51.602Z,67.63
2022-08-22T22:53:19.818Z,68.00
2022-08-22T22:55:59.807Z,68.66
2022-08-22T22:58:27.060Z,68.89
2022-08-22T23:00:53.566Z,69.56
2022-08-22T23:03:20.267Z,70.28
2022-08-22T23:05:46.714Z,71.30
2022-08-22T23:08:13.103Z,73.48
2022-08-22T23:10:39.515Z,72.44
2022-08-22T23:13:06.513Z,71.38
2022-08-22T23:15:32.915Z,70.61
2022-08-22T23:18:02.705Z,72.39
2022-08-22T23:20:29.097Z,73.09
2022-08-22T23:22:55.465Z,72.24
2022-08-22T23:25:21.971Z,70.62
2022-08-22T23:27:48.804Z,72.85
2022-08-22T23:30:18.974Z,72.94
2022-08-22T23:32:48.185Z,72.58
2022-08-22T23:35:14.666Z,73.08
2022-08-22T23:37:41.057Z,72.74
2022-08-22T23:40:09.313Z,73.60
2022-08-22T23:42:35.756Z,73.09
2022-08-22T23:45:02.168Z,74.13
2022-08-22T23:47:32.038Z,75.11
2022-08-22T23:49:58.443Z,74.76
2022-08-22T23:52:29.343Z,75.00
2022-08-22T23:54:55.961Z,74.33
2022-08-22T23:57:26.391Z,76.34
2022-08-22T23:59:58.404Z,76.66
